sensor_id;sensor_type;location;lat;lon;timestamp;pressure;altitude;pressure_sealevel;temperature;humidity
68948;BME280;55996;49.546;7.400;2022-12-18T00:01:42;99901.78;;;-6.44;100.00
68948;BME280;55996;49.546;7.400;2022-12-18T00:04:17;99896.53;;;-6.47;100.00
68948;BME280;55996;49.546;7.400;2022-12-18T00:06:43;99892.06;;;-6.52;100.00
68948;BME280;55996;49.546;7.400;2022-12-18T00:09:09;99880.41;;;-6.48;100.00
68948;BME280;55996;49.546;7.400;2022-12-18T00:11:35;99884.78;;;-6.29;100.00
68948;BME280;55996;49.546;7.400;2022-12-18T00:14:00;99882.63;;;-6.38;100.00
68948;BME280;55996;49.546;7.400;2022-12-18T00:16:27;99887.00;;;-6.35;100.00
68948;BME280;55996;49.546;7.400;2022-12-18T00:18:55;99893.53;;;-6.40;100.00
68948;BME280;55996;49.546;7.400;2022-12-18T00:21:21;99896.69;;;-6.44;100.00
68948;BME280;55996;49.546;7.400;2022-12-18T00:23:48;99899.88;;;-6.49;100.00
68948;BME280;55996;49.546;7.400;2022-12-18T00:26:16;99904.44;;;-6.26;100.00
68948;BME280;55996;49.546;7.400;2022-12-18T00:28:44;99896.03;;;-6.25;100.00
68948;BME280;55996;49.546;7.400;2022-12-18T00:31:19;99912.19;;;-6.08;100.00
68948;BME280;55996;49.546;7.400;2022-12-18T00:33:45;99912.66;;;-6.16;100.00
68948;BME280;55996;49.546;7.400;2022-12-18T00:36:15;99912.50;;;-6.19;100.00
68948;BME280;55996;49.546;7.400;2022-12-18T00:38:42;99908.69;;;-6.10;100.00
68948;BME280;55996;49.546;7.400;2022-12-18T00:41:10;99918.88;;;-6.10;100.00
68948;BME280;55996;49.546;7.400;2022-12-18T00:43:37;99924.22;;;-6.06;100.00
68948;BME280;55996;49.546;7.400;2022-12-18T00:46:03;99914.28;;;-6.01;100.00
68948;BME280;55996;49.546;7.400;2022-12-18T00:48:28;99905.66;;;-5.87;100.00
68948;BME280;55996;49.546;7.400;2022-12-18T00:50:54;99884.66;;;-5.82;100.00
68948;BME280;55996;49.546;7.400;2022-12-18T00:53:20;99886.53;;;-5.62;100.00
68948;BME280;55996;49.546;7.400;2022-12-18T00:55:46;99884.63;;;-5.49;100.00
68948;BME280;55996;49.546;7.400;2022-12-18T00:58:13;99888.00;;;-5.51;100.00
68948;BME280;55996;49.546;7.400;2022-12-18T01:00:38;99882.91;;;-5.51;100.00
68948;BME280;55996;49.546;7.400;2022-12-18T01:03:05;99894.44;;;-5.41;100.00
68948;BME280;55996;49.546;7.400;2022-12-18T01:05:31;99890.94;;;-5.25;100.00
68948;BME280;55996;49.546;7.400;2022-12-18T01:07:57;99890.69;;;-5.13;100.00
68948;BME280;55996;49.546;7.400;2022-12-18T01:10:23;99877.19;;;-5.28;100.00
68948;BME280;55996;49.546;7.400;2022-12-18T01:12:48;99886.44;;;-5.30;100.00
68948;BME280;55996;49.546;7.400;2022-12-18T01:15:15;99893.31;;;-5.11;100.00
68948;BME280;55996;49.546;7.400;2022-12-18T01:17:41;99857.13;;;-5.39;100.00
68948;BME280;55996;49.546;7.400;2022-12-18T01:20:07;99880.84;;;-5.05;100.00
68948;BME280;55996;49.546;7.400;2022-12-18T01:22:34;99874.00;;;-5.24;100.00
68948;BME280;55996;49.546;7.400;2022-12-18T01:25:00;99894.94;;;-5.30;100.00
68948;BME280;55996;49.546;7.400;2022-12-18T01:27:25;99879.94;;;-5.24;100.00
68948;BME280;55996;49.546;7.400;2022-12-18T01:29:51;99895.22;;;-5.42;100.00
68948;BME280;55996;49.546;7.400;2022-12-18T01:32:17;99881.81;;;-5.38;100.00
68948;BME280;55996;49.546;7.400;2022-12-18T01:34:42;99894.72;;;-5.35;100.00
68948;BME280;55996;49.546;7.400;2022-12-18T01:37:08;99903.19;;;-5.18;100.00
68948;BME280;55996;49.546;7.400;2022-12-18T01:39:33;99896.50;;;-5.15;100.00
68948;BME280;55996;49.546;7.400;2022-12-18T01:42:00;99916.19;;;-5.13;100.00
68948;BME280;55996;49.546;7.400;2022-12-18T01:49:45;99925.47;;;-5.31;100.00
68948;BME280;55996;49.546;7.400;2022-12-18T01:52:10;99918.56;;;-5.51;100.00
68948;BME280;55996;49.546;7.400;2022-12-18T01:54:36;99929.72;;;-5.65;100.00
68948;BME280;55996;49.546;7.400;2022-12-18T01:57:01;99939.25;;;-5.44;100.00
68948;BME280;55996;49.546;7.400;2022-12-18T01:59:27;99929.06;;;-5.44;100.00
68948;BME280;55996;49.546;7.400;2022-12-18T02:01:55;99947.25;;;-5.20;100.00
68948;BME280;55996;49.546;7.400;2022-12-18T02:04:22;99922.38;;;-5.08;100.00
68948;BME280;55996;49.546;7.400;2022-12-18T02:06:53;99908.38;;;-5.16;100.00
68948;BME280;55996;49.546;7.400;2022-12-18T02:09:33;99909.28;;;-4.97;100.00
68948;BME280;55996;49.546;7.400;2022-12-18T02:12:13;99915.47;;;-5.10;100.00
68948;BME280;55996;49.546;7.400;2022-12-18T02:14:48;99918.19;;;-5.07;100.00
68948;BME280;55996;49.546;7.400;2022-12-18T02:17:18;99915.47;;;-5.10;100.00
68948;BME280;55996;49.546;7.400;2022-12-18T02:27:46;99893.78;;;-5.37;100.00
68948;BME280;55996;49.546;7.400;2022-12-18T02:30:15;99905.91;;;-5.49;100.00
68948;BME280;55996;49.546;7.400;2022-12-18T02:32:46;99918.25;;;-5.57;100.00
68948;BME280;55996;49.546;7.400;2022-12-18T02:35:17;99913.94;;;-5.74;100.00
68948;BME280;55996;49.546;7.400;2022-12-18T02:37:46;99892.78;;;-5.57;100.00
68948;BME280;55996;49.546;7.400;2022-12-18T02:40:14;99901.91;;;-5.77;100.00
68948;BME280;55996;49.546;7.400;2022-12-18T02:42:41;99915.94;;;-5.85;100.00
68948;BME280;55996;49.546;7.400;2022-12-18T02:45:06;99904.78;;;-5.87;100.00
68948;BME280;55996;49.546;7.400;2022-12-18T02:47:36;99901.38;;;-5.88;100.00
68948;BME280;55996;49.546;7.400;2022-12-18T02:50:34;99908.06;;;-5.57;100.00
68948;BME280;55996;49.546;7.400;2022-12-18T02:56:32;99889.41;;;-5.56;100.00
68948;BME280;55996;49.546;7.400;2022-12-18T02:59:06;99897.28;;;-5.51;100.00
68948;BME280;55996;49.546;7.400;2022-12-18T03:04:43;99893.16;;;-5.49;100.00
68948;BME280;55996;49.546;7.400;2022-12-18T03:07:19;99886.16;;;-5.53;100.00
68948;BME280;55996;49.546;7.400;2022-12-18T03:09:49;99893.94;;;-5.50;100.00
68948;BME280;55996;49.546;7.400;2022-12-18T03:12:24;99881.22;;;-5.83;100.00
68948;BME280;55996;49.546;7.400;2022-12-18T03:15:02;99901.50;;;-5.68;100.00
68948;BME280;55996;49.546;7.400;2022-12-18T03:17:31;99894.59;;;-5.54;100.00
68948;BME280;55996;49.546;7.400;2022-12-18T03:20:03;99886.72;;;-5.75;100.00
68948;BME280;55996;49.546;7.400;2022-12-18T03:22:32;99895.22;;;-5.75;100.00
68948;BME280;55996;49.546;7.400;2022-12-18T03:25:01;99902.44;;;-5.49;100.00
68948;BME280;55996;49.546;7.400;2022-12-18T03:27:31;99884.41;;;-5.71;100.00
68948;BME280;55996;49.546;7.400;2022-12-18T03:30:07;99887.00;;;-5.36;100.00
68948;BME280;55996;49.546;7.400;2022-12-18T03:32:40;99889.81;;;-5.13;100.00
68948;BME280;55996;49.546;7.400;2022-12-18T03:35:09;99901.50;;;-5.00;100.00
68948;BME280;55996;49.546;7.400;2022-12-18T03:37:36;99882.09;;;-5.15;100.00
68948;BME280;55996;49.546;7.400;2022-12-18T03:40:03;99899.00;;;-5.17;100.00
68948;BME280;55996;49.546;7.400;2022-12-18T03:42:43;99895.59;;;-5.34;100.00
68948;BME280;55996;49.546;7.400;2022-12-18T03:48:08;99901.72;;;-5.30;100.00
68948;BME280;55996;49.546;7.400;2022-12-18T03:53:11;99903.56;;;-5.28;100.00
68948;BME280;55996;49.546;7.400;2022-12-18T03:55:41;99905.13;;;-5.30;100.00
68948;BME280;55996;49.546;7.400;2022-12-18T03:58:08;99884.06;;;-5.44;100.00
68948;BME280;55996;49.546;7.400;2022-12-18T04:00:36;99881.28;;;-5.48;100.00
68948;BME280;55996;49.546;7.400;2022-12-18T04:03:04;99894.16;;;-5.29;100.00
68948;BME280;55996;49.546;7.400;2022-12-18T04:05:30;99884.44;;;-5.20;100.00
68948;BME280;55996;49.546;7.400;2022-12-18T04:07:58;99876.66;;;-5.05;100.00
68948;BME280;55996;49.546;7.400;2022-12-18T04:10:24;99861.81;;;-5.30;100.00
68948;BME280;55996;49.546;7.400;2022-12-18T04:12:49;99868.16;;;-5.22;100.00
68948;BME280;55996;49.546;7.400;2022-12-18T04:15:15;99885.34;;;-5.18;100.00
68948;BME280;55996;49.546;7.400;2022-12-18T04:17:47;99893.34;;;-5.28;100.00
68948;BME280;55996;49.546;7.400;2022-12-18T04:20:13;99876.34;;;-5.45;100.00
68948;BME280;55996;49.546;7.400;2022-12-18T04:22:38;99862.75;;;-5.62;100.00
68948;BME280;55996;49.546;7.400;2022-12-18T04:25:04;99875.56;;;-5.61;100.00
68948;BME280;55996;49.546;7.400;2022-12-18T04:27:29;99878.13;;;-5.26;100.00
68948;BME280;55996;49.546;7.400;2022-12-18T04:29:55;99883.81;;;-5.32;100.00
68948;BME280;55996;49.546;7.400;2022-12-18T04:32:20;99888.91;;;-5.32;100.00
68948;BME280;55996;49.546;7.400;2022-12-18T04:34:46;99881.06;;;-5.53;100.00
68948;BME280;55996;49.546;7.400;2022-12-18T04:37:11;99881.13;;;-5.52;100.00
68948;BME280;55996;49.546;7.400;2022-12-18T04:39:36;99877.63;;;-5.54;100.00
68948;BME280;55996;49.546;7.400;2022-12-18T04:42:02;99879.75;;;-5.45;100.00
68948;BME280;55996;49.546;7.400;2022-12-18T04:44:28;99882.38;;;-5.43;100.00
68948;BME280;55996;49.546;7.400;2022-12-18T04:46:53;99883.75;;;-5.15;100.00
68948;BME280;55996;49.546;7.400;2022-12-18T04:49:18;99877.09;;;-5.13;100.00
68948;BME280;55996;49.546;7.400;2022-12-18T04:51:44;99871.44;;;-5.24;100.00
68948;BME280;55996;49.546;7.400;2022-12-18T04:54:09;99883.81;;;-5.32;100.00
68948;BME280;55996;49.546;7.400;2022-12-18T04:56:35;99878.25;;;-5.41;100.00
68948;BME280;55996;49.546;7.400;2022-12-18T04:59:00;99863.63;;;-5.45;100.00
68948;BME280;55996;49.546;7.400;2022-12-18T05:01:26;99864.94;;;-5.36;100.00
68948;BME280;55996;49.546;7.400;2022-12-18T05:03:51;99888.78;;;-5.68;100.00
68948;BME280;55996;49.546;7.400;2022-12-18T05:06:17;99876.38;;;-5.78;100.00
68948;BME280;55996;49.546;7.400;2022-12-18T05:08:42;99880.44;;;-5.65;100.00
68948;BME280;55996;49.546;7.400;2022-12-18T05:11:10;99863.69;;;-5.44;100.00
68948;BME280;55996;49.546;7.400;2022-12-18T05:13:36;99861.84;;;-5.46;100.00
68948;BME280;55996;49.546;7.400;2022-12-18T05:16:04;99868.31;;;-5.19;100.00
68948;BME280;55996;49.546;7.400;2022-12-18T05:18:30;99871.41;;;-5.42;100.00
68948;BME280;55996;49.546;7.400;2022-12-18T05:20:55;99874.44;;;-5.15;100.00
68948;BME280;55996;49.546;7.400;2022-12-18T05:23:22;99871.88;;;-5.33;100.00
68948;BME280;55996;49.546;7.400;2022-12-18T05:28:21;99885.94;;;-5.23;100.00
68948;BME280;55996;49.546;7.400;2022-12-18T05:30:50;99882.75;;;-5.19;100.00
68948;BME280;55996;49.546;7.400;2022-12-18T05:33:17;99892.97;;;-5.36;100.00
68948;BME280;55996;49.546;7.400;2022-12-18T05:35:43;99893.16;;;-5.14;100.00
68948;BME280;55996;49.546;7.400;2022-12-18T05:38:09;99906.59;;;-5.00;100.00
68948;BME280;55996;49.546;7.400;2022-12-18T05:40:35;99898.88;;;-5.02;100.00
68948;BME280;55996;49.546;7.400;2022-12-18T05:43:00;99903.63;;;-4.74;100.00
68948;BME280;55996;49.546;7.400;2022-12-18T05:45:25;99909.22;;;-4.99;100.00
68948;BME280;55996;49.546;7.400;2022-12-18T05:47:51;99905.72;;;-4.83;100.00
68948;BME280;55996;49.546;7.400;2022-12-18T05:50:16;99897.41;;;-4.97;100.00
68948;BME280;55996;49.546;7.400;2022-12-18T05:52:42;99901.06;;;-4.92;100.00
68948;BME280;55996;49.546;7.400;2022-12-18T05:55:07;99920.03;;;-4.68;100.00
68948;BME280;55996;49.546;7.400;2022-12-18T05:57:33;99925.00;;;-4.54;100.00
68948;BME280;55996;49.546;7.400;2022-12-18T05:59:58;99920.41;;;-4.43;100.00
68948;BME280;55996;49.546;7.400;2022-12-18T06:02:24;99921.34;;;-4.59;100.00
68948;BME280;55996;49.546;7.400;2022-12-18T06:04:49;99917.13;;;-4.40;100.00
68948;BME280;55996;49.546;7.400;2022-12-18T06:07:14;99907.19;;;-4.52;100.00
68948;BME280;55996;49.546;7.400;2022-12-18T06:09:40;99913.91;;;-4.36;100.00
68948;BME280;55996;49.546;7.400;2022-12-18T06:12:06;99919.13;;;-4.33;100.00
68948;BME280;55996;49.546;7.400;2022-12-18T06:14:31;99910.13;;;-4.62;100.00
68948;BME280;55996;49.546;7.400;2022-12-18T06:16:56;99909.53;;;-4.75;100.00
68948;BME280;55996;49.546;7.400;2022-12-18T06:19:22;99910.41;;;-4.74;100.00
68948;BME280;55996;49.546;7.400;2022-12-18T06:21:47;99902.38;;;-4.82;100.00
68948;BME280;55996;49.546;7.400;2022-12-18T06:24:14;99909.97;;;-4.83;100.00
68948;BME280;55996;49.546;7.400;2022-12-18T06:26:39;99917.19;;;-4.75;100.00
68948;BME280;55996;49.546;7.400;2022-12-18T06:29:05;99911.78;;;-4.63;100.00
68948;BME280;55996;49.546;7.400;2022-12-18T06:31:31;99907.84;;;-4.74;100.00
68948;BME280;55996;49.546;7.400;2022-12-18T06:33:56;99917.13;;;-4.76;100.00
68948;BME280;55996;49.546;7.400;2022-12-18T06:36:22;99898.88;;;-4.84;100.00
68948;BME280;55996;49.546;7.400;2022-12-18T06:38:48;99922.72;;;-4.65;100.00
68948;BME280;55996;49.546;7.400;2022-12-18T06:41:17;99926.75;;;-4.52;100.00
68948;BME280;55996;49.546;7.400;2022-12-18T06:43:43;99917.03;;;-4.78;100.00
68948;BME280;55996;49.546;7.400;2022-12-18T06:46:09;99919.94;;;-4.88;100.00
68948;BME280;55996;49.546;7.400;2022-12-18T06:48:35;99915.34;;;-4.95;100.00
68948;BME280;55996;49.546;7.400;2022-12-18T06:51:01;99918.25;;;-4.88;100.00
68948;BME280;55996;49.546;7.400;2022-12-18T06:53:26;99901.34;;;-4.86;100.00
68948;BME280;55996;49.546;7.400;2022-12-18T06:55:52;99911.00;;;-4.80;100.00
68948;BME280;55996;49.546;7.400;2022-12-18T06:58:18;99908.81;;;-4.72;100.00
68948;BME280;55996;49.546;7.400;2022-12-18T07:00:43;99907.94;;;-4.55;100.00
68948;BME280;55996;49.546;7.400;2022-12-18T07:03:10;99912.47;;;-4.49;100.00
68948;BME280;55996;49.546;7.400;2022-12-18T07:05:40;99912.22;;;-4.54;100.00
68948;BME280;55996;49.546;7.400;2022-12-18T07:08:06;99915.72;;;-4.51;100.00
68948;BME280;55996;49.546;7.400;2022-12-18T07:10:31;99918.13;;;-4.55;100.00
68948;BME280;55996;49.546;7.400;2022-12-18T07:12:56;99916.69;;;-4.67;100.00
68948;BME280;55996;49.546;7.400;2022-12-18T07:15:22;99912.00;;;-4.58;100.00
68948;BME280;55996;49.546;7.400;2022-12-18T07:17:47;99904.38;;;-4.76;100.00
68948;BME280;55996;49.546;7.400;2022-12-18T07:20:13;99908.94;;;-4.69;100.00
68948;BME280;55996;49.546;7.400;2022-12-18T07:22:38;99918.13;;;-4.36;100.00
68948;BME280;55996;49.546;7.400;2022-12-18T07:25:04;99914.03;;;-4.33;100.00
68948;BME280;55996;49.546;7.400;2022-12-18T07:27:29;99909.38;;;-4.42;100.00
68948;BME280;55996;49.546;7.400;2022-12-18T07:29:55;99924.25;;;-4.51;100.00
68948;BME280;55996;49.546;7.400;2022-12-18T07:32:20;99915.41;;;-4.58;100.00
68948;BME280;55996;49.546;7.400;2022-12-18T07:34:46;99920.00;;;-4.50;100.00
68948;BME280;55996;49.546;7.400;2022-12-18T07:37:11;99930.53;;;-4.62;100.00
68948;BME280;55996;49.546;7.400;2022-12-18T07:39:36;99931.69;;;-4.74;100.00
68948;BME280;55996;49.546;7.400;2022-12-18T07:42:02;99933.22;;;-4.59;100.00
68948;BME280;55996;49.546;7.400;2022-12-18T07:44:46;99925.56;;;-4.41;100.00
68948;BME280;55996;49.546;7.400;2022-12-18T07:47:11;99933.28;;;-4.22;100.00
68948;BME280;55996;49.546;7.400;2022-12-18T07:49:36;99926.72;;;-4.16;100.00
68948;BME280;55996;49.546;7.400;2022-12-18T07:52:02;99955.59;;;-4.17;100.00
68948;BME280;55996;49.546;7.400;2022-12-18T07:54:27;99961.28;;;-4.23;100.00
68948;BME280;55996;49.546;7.400;2022-12-18T07:56:53;99967.56;;;-4.16;100.00
68948;BME280;55996;49.546;7.400;2022-12-18T07:59:20;99960.13;;;-4.12;100.00
68948;BME280;55996;49.546;7.400;2022-12-18T08:01:45;99954.28;;;-4.09;100.00
68948;BME280;55996;49.546;7.400;2022-12-18T08:04:10;99950.00;;;-4.46;100.00
68948;BME280;55996;49.546;7.400;2022-12-18T08:06:36;99955.75;;;-4.50;100.00
68948;BME280;55996;49.546;7.400;2022-12-18T08:09:02;99958.25;;;-4.34;100.00
68948;BME280;55996;49.546;7.400;2022-12-18T08:11:28;99939.56;;;-4.33;100.00
68948;BME280;55996;49.546;7.400;2022-12-18T08:13:54;99944.31;;;-4.41;100.00
68948;BME280;55996;49.546;7.400;2022-12-18T08:16:19;99939.84;;;-4.27;100.00
68948;BME280;55996;49.546;7.400;2022-12-18T08:18:45;99926.84;;;-4.13;100.00
68948;BME280;55996;49.546;7.400;2022-12-18T08:21:18;99924.00;;;-4.19;100.00
68948;BME280;55996;49.546;7.400;2022-12-18T08:23:46;99927.84;;;-4.10;100.00
68948;BME280;55996;49.546;7.400;2022-12-18T08:26:12;99911.63;;;-4.48;100.00
68948;BME280;55996;49.546;7.400;2022-12-18T08:28:38;99920.81;;;-4.15;100.00
68948;BME280;55996;49.546;7.400;2022-12-18T08:31:03;99912.69;;;-4.07;100.00
68948;BME280;55996;49.546;7.400;2022-12-18T08:33:29;99904.75;;;-4.31;100.00
68948;BME280;55996;49.546;7.400;2022-12-18T08:35:54;99903.66;;;-4.18;100.00
68948;BME280;55996;49.546;7.400;2022-12-18T08:38:20;99903.00;;;-4.14;100.00
68948;BME280;55996;49.546;7.400;2022-12-18T08:40:46;99904.66;;;-3.77;100.00
68948;BME280;55996;49.546;7.400;2022-12-18T08:43:11;99906.88;;;-3.84;100.00
68948;BME280;55996;49.546;7.400;2022-12-18T08:45:55;99907.13;;;-3.59;100.00
68948;BME280;55996;49.546;7.400;2022-12-18T08:48:21;99917.28;;;-3.99;100.00
68948;BME280;55996;49.546;7.400;2022-12-18T08:50:57;99927.97;;;-3.89;100.00
68948;BME280;55996;49.546;7.400;2022-12-18T08:53:23;99904.75;;;-4.31;100.00
68948;BME280;55996;49.546;7.400;2022-12-18T08:55:49;99916.03;;;-4.08;100.00
68948;BME280;55996;49.546;7.400;2022-12-18T08:58:14;99911.34;;;-4.18;100.00
68948;BME280;55996;49.546;7.400;2022-12-18T09:00:40;99921.91;;;-4.28;100.00
68948;BME280;55996;49.546;7.400;2022-12-18T09:03:05;99924.63;;;-4.43;100.00
68948;BME280;55996;49.546;7.400;2022-12-18T09:05:35;99932.31;;;-4.06;100.00
68948;BME280;55996;49.546;7.400;2022-12-18T09:08:00;99940.84;;;-4.23;100.00
68948;BME280;55996;49.546;7.400;2022-12-18T09:10:26;99922.25;;;-4.21;100.00
68948;BME280;55996;49.546;7.400;2022-12-18T09:12:52;99930.13;;;-3.98;100.00
68948;BME280;55996;49.546;7.400;2022-12-18T09:15:17;99944.19;;;-3.88;100.00
68948;BME280;55996;49.546;7.400;2022-12-18T09:17:43;99945.59;;;-4.13;100.00
68948;BME280;55996;49.546;7.400;2022-12-18T09:20:09;99941.53;;;-4.09;100.00
68948;BME280;55996;49.546;7.400;2022-12-18T09:22:34;99957.41;;;-3.77;100.00
68948;BME280;55996;49.546;7.400;2022-12-18T09:25:00;99951.97;;;-4.23;100.00
68948;BME280;55996;49.546;7.400;2022-12-18T09:27:25;99957.59;;;-3.92;100.00
68948;BME280;55996;49.546;7.400;2022-12-18T09:29:51;99968.78;;;-3.90;100.00
68948;BME280;55996;49.546;7.400;2022-12-18T09:32:16;99969.81;;;-3.67;100.00
68948;BME280;55996;49.546;7.400;2022-12-18T09:34:41;99970.56;;;-3.69;100.00
68948;BME280;55996;49.546;7.400;2022-12-18T09:37:07;99974.13;;;-3.46;100.00
68948;BME280;55996;49.546;7.400;2022-12-18T09:39:35;99965.97;;;-3.18;100.00
68948;BME280;55996;49.546;7.400;2022-12-18T09:42:00;99949.16;;;-3.32;100.00
68948;BME280;55996;49.546;7.400;2022-12-18T09:44:55;99941.34;;;-3.55;100.00
68948;BME280;55996;49.546;7.400;2022-12-18T09:47:28;99969.41;;;-3.37;100.00
68948;BME280;55996;49.546;7.400;2022-12-18T09:50:05;99967.47;;;-3.43;100.00
68948;BME280;55996;49.546;7.400;2022-12-18T09:52:39;99963.81;;;-3.28;100.00
68948;BME280;55996;49.546;7.400;2022-12-18T09:55:22;99953.19;;;-3.37;100.00
68948;BME280;55996;49.546;7.400;2022-12-18T09:57:56;99950.03;;;-3.32;100.00
68948;BME280;55996;49.546;7.400;2022-12-18T10:00:25;99953.13;;;-3.39;100.00
68948;BME280;55996;49.546;7.400;2022-12-18T10:02:53;99950.50;;;-3.41;100.00
68948;BME280;55996;49.546;7.400;2022-12-18T10:08:39;99946.34;;;-2.98;100.00
68948;BME280;55996;49.546;7.400;2022-12-18T10:11:37;99942.91;;;-2.98;100.00
68948;BME280;55996;49.546;7.400;2022-12-18T10:19:32;99932.66;;;-3.19;100.00
68948;BME280;55996;49.546;7.400;2022-12-18T10:22:21;99934.00;;;-2.87;100.00
68948;BME280;55996;49.546;7.400;2022-12-18T10:24:58;99925.56;;;-2.63;100.00
68948;BME280;55996;49.546;7.400;2022-12-18T10:27:27;99924.94;;;-2.57;100.00
68948;BME280;55996;49.546;7.400;2022-12-18T10:29:54;99932.19;;;-2.89;100.00
68948;BME280;55996;49.546;7.400;2022-12-18T10:32:25;99940.41;;;-2.54;100.00
68948;BME280;55996;49.546;7.400;2022-12-18T10:34:54;99939.19;;;-2.64;100.00
68948;BME280;55996;49.546;7.400;2022-12-18T10:37:23;99938.81;;;-2.73;100.00
68948;BME280;55996;49.546;7.400;2022-12-18T10:40:15;99940.34;;;-2.56;100.00
68948;BME280;55996;49.546;7.400;2022-12-18T10:42:41;99933.09;;;-2.45;100.00
68948;BME280;55996;49.546;7.400;2022-12-18T10:45:15;99930.53;;;-2.45;100.00
68948;BME280;55996;49.546;7.400;2022-12-18T10:47:46;99915.28;;;-2.42;100.00
68948;BME280;55996;49.546;7.400;2022-12-18T10:52:58;99912.41;;;-2.29;100.00
68948;BME280;55996;49.546;7.400;2022-12-18T10:55:30;99909.03;;;-2.71;100.00
68948;BME280;55996;49.546;7.400;2022-12-18T10:58:13;99920.75;;;-2.55;100.00
68948;BME280;55996;49.546;7.400;2022-12-18T11:00:41;99909.53;;;-2.36;100.00
68948;BME280;55996;49.546;7.400;2022-12-18T11:03:30;99902.09;;;-2.30;100.00
68948;BME280;55996;49.546;7.400;2022-12-18T11:08:34;99908.91;;;-2.31;100.00
68948;BME280;55996;49.546;7.400;2022-12-18T11:11:01;99909.44;;;-2.17;100.00
68948;BME280;55996;49.546;7.400;2022-12-18T11:13:29;99897.06;;;-2.27;100.00
68948;BME280;55996;49.546;7.400;2022-12-18T11:15:55;99903.56;;;-2.37;100.00
68948;BME280;55996;49.546;7.400;2022-12-18T11:18:32;99900.28;;;-2.33;100.00
68948;BME280;55996;49.546;7.400;2022-12-18T11:21:07;99895.28;;;-2.52;100.00
68948;BME280;55996;49.546;7.400;2022-12-18T11:23:34;99874.13;;;-2.69;100.00
68948;BME280;55996;49.546;7.400;2022-12-18T11:26:03;99901.13;;;-2.78;100.00
68948;BME280;55996;49.546;7.400;2022-12-18T11:28:51;99910.53;;;-2.33;100.00
68948;BME280;55996;49.546;7.400;2022-12-18T11:34:23;99898.31;;;-1.95;100.00
68948;BME280;55996;49.546;7.400;2022-12-18T11:36:52;99884.97;;;-2.08;100.00
68948;BME280;55996;49.546;7.400;2022-12-18T11:39:28;99889.41;;;-2.04;100.00
68948;BME280;55996;49.546;7.400;2022-12-18T11:41:59;99893.13;;;-2.19;100.00
68948;BME280;55996;49.546;7.400;2022-12-18T11:44:59;99892.81;;;-2.04;100.00
68948;BME280;55996;49.546;7.400;2022-12-18T11:53:02;99881.09;;;-2.21;100.00
68948;BME280;55996;49.546;7.400;2022-12-18T12:04:12;99881.56;;;-2.32;100.00
68948;BME280;55996;49.546;7.400;2022-12-18T12:14:49;99878.66;;;-2.18;100.00
68948;BME280;55996;49.546;7.400;2022-12-18T12:20:20;99867.34;;;-2.01;100.00
68948;BME280;55996;49.546;7.400;2022-12-18T12:25:40;99857.19;;;-1.98;100.00
68948;BME280;55996;49.546;7.400;2022-12-18T12:28:15;99851.25;;;-1.97;100.00
68948;BME280;55996;49.546;7.400;2022-12-18T12:36:33;99828.41;;;-1.90;100.00
68948;BME280;55996;49.546;7.400;2022-12-18T12:39:08;99830.53;;;-2.03;100.00
68948;BME280;55996;49.546;7.400;2022-12-18T12:41:38;99825.34;;;-2.27;100.00
68948;BME280;55996;49.546;7.400;2022-12-18T12:44:34;99817.69;;;-2.27;100.00
68948;BME280;55996;49.546;7.400;2022-12-18T12:47:31;99812.50;;;-2.06;100.00
68948;BME280;55996;49.546;7.400;2022-12-18T12:49:56;99820.31;;;-2.25;100.00
68948;BME280;55996;49.546;7.400;2022-12-18T12:52:34;99817.69;;;-2.27;100.00
68948;BME280;55996;49.546;7.400;2022-12-18T12:55:02;99803.59;;;-2.16;100.00
68948;BME280;55996;49.546;7.400;2022-12-18T12:57:42;99813.66;;;-2.20;100.00
68948;BME280;55996;49.546;7.400;2022-12-18T13:00:17;99810.84;;;-2.04;100.00
68948;BME280;55996;49.546;7.400;2022-12-18T13:02:47;99797.66;;;-1.90;100.00
68948;BME280;55996;49.546;7.400;2022-12-18T13:08:03;99792.31;;;-1.97;100.00
68948;BME280;55996;49.546;7.400;2022-12-18T13:10:33;99799.94;;;-1.98;100.00
68948;BME280;55996;49.546;7.400;2022-12-18T13:13:03;99798.94;;;-1.77;100.00
68948;BME280;55996;49.546;7.400;2022-12-18T13:15:47;99796.44;;;-2.00;100.00
68948;BME280;55996;49.546;7.400;2022-12-18T13:18:23;99799.28;;;-1.92;100.00
68948;BME280;55996;49.546;7.400;2022-12-18T13:21:29;99801.22;;;-1.85;100.00
68948;BME280;55996;49.546;7.400;2022-12-18T13:23:56;99802.84;;;-1.87;100.00
68948;BME280;55996;49.546;7.400;2022-12-18T13:26:33;99787.38;;;-1.66;100.00
68948;BME280;55996;49.546;7.400;2022-12-18T13:29:00;99792.50;;;-1.66;100.00
68948;BME280;55996;49.546;7.400;2022-12-18T13:34:21;99780.19;;;-1.76;100.00
68948;BME280;55996;49.546;7.400;2022-12-18T13:36:48;99794.44;;;-1.85;100.00
68948;BME280;55996;49.546;7.400;2022-12-18T13:41:43;99786.97;;;-1.79;100.00
68948;BME280;55996;49.546;7.400;2022-12-18T13:46:47;99779.53;;;-1.95;100.00
68948;BME280;55996;49.546;7.400;2022-12-18T13:51:50;99781.47;;;-1.89;100.00
68948;BME280;55996;49.546;7.400;2022-12-18T13:57:02;99784.66;;;-1.95;100.00
68948;BME280;55996;49.546;7.400;2022-12-18T13:59:39;99780.09;;;-1.80;100.00
68948;BME280;55996;49.546;7.400;2022-12-18T14:02:32;99782.81;;;-1.99;100.00
68948;BME280;55996;49.546;7.400;2022-12-18T14:04:59;99784.44;;;-2.01;100.00
68948;BME280;55996;49.546;7.400;2022-12-18T14:07:28;99782.09;;;-1.95;100.00
68948;BME280;55996;49.546;7.400;2022-12-18T14:09:59;99782.56;;;-2.07;100.00
68948;BME280;55996;49.546;7.400;2022-12-18T14:12:26;99778.03;;;-2.14;100.00
68948;BME280;55996;49.546;7.400;2022-12-18T14:15:23;99783.09;;;-1.91;100.00
68948;BME280;55996;49.546;7.400;2022-12-18T14:18:00;99784.63;;;-1.97;100.00
68948;BME280;55996;49.546;7.400;2022-12-18T14:20:31;99778.47;;;-2.02;100.00
68948;BME280;55996;49.546;7.400;2022-12-18T14:22:58;99775.13;;;-1.99;100.00
68948;BME280;55996;49.546;7.400;2022-12-18T14:25:30;99785.34;;;-2.01;100.00
68948;BME280;55996;49.546;7.400;2022-12-18T14:30:45;99770.38;;;-1.88;100.00
68948;BME280;55996;49.546;7.400;2022-12-18T14:33:13;99770.47;;;-1.85;100.00
68948;BME280;55996;49.546;7.400;2022-12-18T14:35:59;99776.34;;;-1.64;100.00
68948;BME280;55996;49.546;7.400;2022-12-18T14:41:09;99768.53;;;-1.67;100.00